Time;durP1;ratioP1;P1;durP2;ratioP2;P2;SDS_P1;SDS_P2;PMS_P1;PMS_P2;Temp;Humidity;BMP_temperature;BMP_pressure;BME280_temperature;BME280_humidity;BME280_pressure;Samples;Min_cycle;Max_cycle;Signal;HPM_P1;HPM_P2
2022/03/06 00:00:43;;;;;;;;;;;;;;;-1.03;47.96;96623.03;5006903;28;19957;-72
2022/03/06 00:03:09;;;;;;;;;;;;;;;-1.03;47.73;96623.03;4996962;28;19955;-72
2022/03/06 00:05:35;;;;;;;;;;;;;;;-1.05;48.34;96619.78;5008929;28;19956;-72
2022/03/06 00:08:02;;;;;;;;;;;;;;;-1.06;47.90;96618.97;5005197;28;19976;-72
2022/03/06 00:10:29;;;;;;;;;;;;;;;-1.06;48.03;96624.13;5002552;28;19953;-72
2022/03/06 00:12:55;;;;;;;;;;;;;;;-1.04;48.00;96617.06;5013320;28;19955;-72
2022/03/06 00:15:22;;;;;;;;;;;;;;;-1.07;48.95;96621.69;5004384;28;19957;-72
2022/03/06 00:17:49;;;;;;;;;;;;;;;-1.08;48.42;96626.03;5005187;28;19950;-72
2022/03/06 00:20:15;;;;;;;;;;;;;;;-1.10;47.93;96621.97;5007578;28;19967;-72
2022/03/06 00:22:41;;;;;;;;;;;;;;;-1.14;49.28;96621.44;5008475;28;20343;-73
2022/03/06 00:25:07;;;;;;;;;;;;;;;-1.17;48.01;96610.63;5000418;28;19951;-72
2022/03/06 00:27:33;;;;;;;;;;;;;;;-1.19;47.79;96620.25;5009532;28;19969;-72
2022/03/06 00:29:59;;;;;;;;;;;;;;;-1.22;48.31;96611.03;5007429;28;19941;-72
2022/03/06 00:32:25;;;;;;;;;;;;;;;-1.21;48.77;96612.66;5000142;28;19951;-72
2022/03/06 00:34:51;;;;;;;;;;;;;;;-1.21;47.99;96609.28;5007116;28;19962;-72
2022/03/06 00:37:17;;;;;;;;;;;;;;;-1.24;48.42;96612.94;5006897;28;19966;-72
2022/03/06 00:39:43;;;;;;;;;;;;;;;-1.25;49.28;96608.75;5007234;28;19959;-72
2022/03/06 00:42:09;;;;;;;;;;;;;;;-1.29;48.99;96612.56;5005356;28;19956;-72
2022/03/06 00:44:36;;;;;;;;;;;;;;;-1.33;48.43;96613.78;5008631;28;19979;-72
2022/03/06 00:47:02;;;;;;;;;;;;;;;-1.36;48.92;96608.94;5005185;28;19957;-72
2022/03/06 00:49:28;;;;;;;;;;;;;;;-1.39;49.29;96606.63;5005678;28;19954;-73
2022/03/06 00:51:54;;;;;;;;;;;;;;;-1.42;49.18;96609.47;5001520;28;19962;-73
2022/03/06 00:54:20;;;;;;;;;;;;;;;-1.45;48.56;96597.69;5009183;28;19957;-72
2022/03/06 00:56:46;;;;;;;;;;;;;;;-1.45;49.63;96613.13;5010728;28;20017;-73
2022/03/06 00:59:12;;;;;;;;;;;;;;;-1.49;49.08;96606.63;5008194;28;20332;-73
2022/03/06 01:01:39;;;;;;;;;;;;;;;-1.50;48.75;96610.16;5009646;28;19969;-72
2022/03/06 01:04:04;;;;;;;;;;;;;;;-1.50;49.45;96615.31;4989465;28;19956;-72
2022/03/06 01:06:30;;;;;;;;;;;;;;;-1.53;49.52;96610.44;5003177;28;20313;-73
2022/03/06 01:08:56;;;;;;;;;;;;;;;-1.57;49.89;96614.25;5003404;28;20424;-72
2022/03/06 01:11:22;;;;;;;;;;;;;;;-1.59;49.05;96613.56;5008943;28;19954;-72
2022/03/06 01:13:48;;;;;;;;;;;;;;;-1.63;48.45;96607.88;4990960;28;19990;-73
2022/03/06 01:16:14;;;;;;;;;;;;;;;-1.68;50.89;96610.88;5004967;28;19991;-72
2022/03/06 01:18:40;;;;;;;;;;;;;;;-1.70;49.44;96617.91;5007188;28;20409;-72
2022/03/06 01:21:06;;;;;;;;;;;;;;;-1.71;49.87;96616.28;5010443;28;20427;-73
2022/03/06 01:23:32;;;;;;;;;;;;;;;-1.75;50.87;96620.06;5002124;28;20000;-72
2022/03/06 01:25:58;;;;;;;;;;;;;;;-1.76;50.79;96630.50;5001454;28;19963;-73
2022/03/06 01:28:23;;;;;;;;;;;;;;;-1.80;50.42;96624.81;5002284;28;19956;-72
2022/03/06 01:30:49;;;;;;;;;;;;;;;-1.86;50.69;96615.88;5005290;28;19953;-72
2022/03/06 01:33:15;;;;;;;;;;;;;;;-1.92;49.69;96625.91;5008981;28;19957;-72
2022/03/06 01:35:41;;;;;;;;;;;;;;;-1.97;50.97;96620.38;5005437;28;19954;-72
2022/03/06 01:38:07;;;;;;;;;;;;;;;-2.01;51.42;96627.53;5007665;28;20040;-72
2022/03/06 01:40:33;;;;;;;;;;;;;;;-2.03;52.50;96626.03;5005578;28;19958;-72
2022/03/06 01:42:59;;;;;;;;;;;;;;;-2.07;50.93;96625.50;5002635;28;19974;-72
2022/03/06 01:45:25;;;;;;;;;;;;;;;-2.06;51.58;96620.22;5004706;28;20502;-72
2022/03/06 01:47:52;;;;;;;;;;;;;;;-2.05;51.01;96623.59;5011359;28;19960;-72
2022/03/06 01:50:27;;;;;;;;;;;;;;;-2.09;51.78;96617.91;5004675;28;19958;-72
2022/03/06 01:52:54;;;;;;;;;;;;;;;-2.17;52.23;96617.75;4998237;28;19961;-72
2022/03/06 01:55:22;;;;;;;;;;;;;;;-2.23;49.71;96617.50;5004557;28;19968;-72
2022/03/06 01:57:48;;;;;;;;;;;;;;;-2.27;51.93;96616.94;5009232;28;20025;-73
2022/03/06 02:00:18;;;;;;;;;;;;;;;-2.29;51.73;96629.09;4999250;28;19954;-72
2022/03/06 02:02:43;;;;;;;;;;;;;;;-2.33;52.32;96626.00;5004426;28;20450;-72
2022/03/06 02:05:10;;;;;;;;;;;;;;;-2.33;52.52;96617.47;5008964;28;19949;-72
2022/03/06 02:07:36;;;;;;;;;;;;;;;-2.33;52.18;96625.16;5009438;28;19957;-73
2022/03/06 02:10:03;;;;;;;;;;;;;;;-2.37;51.72;96619.50;5005642;28;19952;-72
2022/03/06 02:12:29;;;;;;;;;;;;;;;-2.36;52.14;96620.31;5001626;28;19950;-72
2022/03/06 02:14:56;;;;;;;;;;;;;;;-2.37;52.52;96623.81;5006543;28;20365;-72
2022/03/06 02:17:23;;;;;;;;;;;;;;;-2.40;51.81;96619.75;5009678;28;20351;-72
2022/03/06 02:19:52;;;;;;;;;;;;;;;-2.44;53.80;96615.84;5002620;28;19947;-72
2022/03/06 02:22:22;;;;;;;;;;;;;;;-2.46;52.19;96617.72;4999322;28;19972;-73
2022/03/06 02:24:48;;;;;;;;;;;;;;;-2.49;52.43;96615.44;5008695;28;19950;-72
2022/03/06 02:27:14;;;;;;;;;;;;;;;-2.46;52.78;96615.16;5004309;28;19953;-72
2022/03/06 02:29:40;;;;;;;;;;;;;;;-2.46;52.31;96610.00;5001034;28;20003;-72
2022/03/06 02:32:08;;;;;;;;;;;;;;;-2.45;52.80;96615.03;5001155;28;19949;-72
2022/03/06 02:34:34;;;;;;;;;;;;;;;-2.47;52.14;96610.97;5007780;28;19952;-72
2022/03/06 02:37:00;;;;;;;;;;;;;;;-2.50;53.29;96608.66;5005793;28;19956;-72
2022/03/06 02:39:26;;;;;;;;;;;;;;;-2.50;53.07;96609.50;5006227;28;20053;-72
2022/03/06 02:41:52;;;;;;;;;;;;;;;-2.46;52.94;96610.00;5001619;28;20005;-72
2022/03/06 02:44:18;;;;;;;;;;;;;;;-2.45;53.16;96609.88;5010667;28;19975;-72
2022/03/06 02:46:44;;;;;;;;;;;;;;;-2.42;55.69;96613.13;5000631;28;20425;-72
2022/03/06 02:49:10;;;;;;;;;;;;;;;-2.40;53.83;96612.06;5007036;28;19951;-72
2022/03/06 02:51:36;;;;;;;;;;;;;;;-2.39;52.40;96615.44;5006068;28;19954;-72
2022/03/06 02:54:02;;;;;;;;;;;;;;;-2.40;53.95;96613.81;4998483;28;19985;-72
2022/03/06 02:56:28;;;;;;;;;;;;;;;-2.42;53.27;96611.38;5002108;28;19958;-72
2022/03/06 02:58:54;;;;;;;;;;;;;;;-2.45;53.21;96609.88;5009205;28;20041;-72
2022/03/06 03:01:20;;;;;;;;;;;;;;;-2.49;53.54;96616.22;5007014;28;20329;-72
2022/03/06 03:03:46;;;;;;;;;;;;;;;-2.51;54.14;96614.75;5005646;28;20420;-72
2022/03/06 03:06:12;;;;;;;;;;;;;;;-2.55;54.44;96619.31;5008584;28;20013;-72
2022/03/06 03:08:37;;;;;;;;;;;;;;;-2.59;54.39;96617.97;5004745;28;19960;-72
2022/03/06 03:11:03;;;;;;;;;;;;;;;-2.62;53.56;96614.88;5000135;28;20319;-72
2022/03/06 03:13:29;;;;;;;;;;;;;;;-2.66;54.71;96619.44;5002689;28;19990;-72
2022/03/06 03:15:55;;;;;;;;;;;;;;;-2.71;53.92;96614.72;5005708;28;19949;-72
2022/03/06 03:18:21;;;;;;;;;;;;;;;-2.74;53.26;96616.72;5011963;28;20392;-73
2022/03/06 03:20:49;;;;;;;;;;;;;;;-2.74;54.88;96626.97;4990016;28;19953;-73
2022/03/06 03:23:15;;;;;;;;;;;;;;;-2.74;55.24;96624.41;5003942;28;20306;-73
2022/03/06 03:25:40;;;;;;;;;;;;;;;-2.74;55.44;96619.28;5006201;28;19953;-72
2022/03/06 03:28:06;;;;;;;;;;;;;;;-2.70;54.77;96623.22;5004881;28;20415;-72
2022/03/06 03:30:32;;;;;;;;;;;;;;;-2.67;55.50;96625.50;5000535;28;19964;-73
2022/03/06 03:32:58;;;;;;;;;;;;;;;-2.66;53.98;96622.81;5004692;28;19963;-73
2022/03/06 03:35:24;;;;;;;;;;;;;;;-2.63;55.05;96626.88;5002945;28;19957;-72
2022/03/06 03:37:50;;;;;;;;;;;;;;;-2.62;55.34;96628.50;4997027;28;19954;-73
2022/03/06 03:40:16;;;;;;;;;;;;;;;-2.63;54.14;96623.50;5005931;28;19959;-72
2022/03/06 03:42:41;;;;;;;;;;;;;;;-2.65;54.33;96628.75;4992764;28;20330;-73
2022/03/06 03:45:08;;;;;;;;;;;;;;;-2.67;54.29;96631.47;4998637;28;19978;-72
2022/03/06 03:47:34;;;;;;;;;;;;;;;-2.69;54.16;96632.53;5011693;28;19957;-73
2022/03/06 03:49:59;;;;;;;;;;;;;;;-2.72;54.92;96631.03;5004122;28;19949;-72
2022/03/06 03:52:25;;;;;;;;;;;;;;;-2.76;54.42;96636.56;5004174;28;19965;-72
2022/03/06 03:54:51;;;;;;;;;;;;;;;-2.80;54.43;96638.56;5007832;28;19958;-72
2022/03/06 03:57:17;;;;;;;;;;;;;;;-2.84;55.39;96644.09;5008001;28;20617;-72
2022/03/06 03:59:43;;;;;;;;;;;;;;;-2.88;56.27;96638.41;5009318;28;19953;-72
2022/03/06 04:02:09;;;;;;;;;;;;;;;-2.91;55.57;96642.03;5003512;28;20048;-72
2022/03/06 04:04:35;;;;;;;;;;;;;;;-2.93;55.86;96653.38;5012558;28;20387;-72
2022/03/06 04:07:01;;;;;;;;;;;;;;;-2.96;54.58;96651.91;5006725;28;19951;-72
2022/03/06 04:09:27;;;;;;;;;;;;;;;-2.99;56.72;96651.31;5009070;28;19960;-72
2022/03/06 04:11:53;;;;;;;;;;;;;;;-3.00;55.63;96653.09;5005936;28;19954;-72
2022/03/06 04:14:19;;;;;;;;;;;;;;;-2.99;55.13;96659.84;4987361;28;19952;-72
2022/03/06 04:16:45;;;;;;;;;;;;;;;-3.01;56.94;96661.72;5008679;28;19960;-73
2022/03/06 04:19:11;;;;;;;;;;;;;;;-3.04;55.58;96659.41;5007208;28;20409;-72
2022/03/06 04:21:36;;;;;;;;;;;;;;;-3.03;55.37;96660.22;5009665;28;20048;-72
2022/03/06 04:24:03;;;;;;;;;;;;;;;-3.05;55.56;96657.78;5001254;28;19980;-72
2022/03/06 04:26:28;;;;;;;;;;;;;;;-3.04;55.77;96661.97;5007887;28;19962;-72
2022/03/06 04:28:54;;;;;;;;;;;;;;;-3.07;56.38;96659.66;5007539;28;19997;-72
2022/03/06 04:31:20;;;;;;;;;;;;;;;-3.08;55.91;96666.53;5006383;28;19990;-72
2022/03/06 04:33:46;;;;;;;;;;;;;;;-3.10;56.85;96667.63;5007487;28;19957;-72
2022/03/06 04:36:12;;;;;;;;;;;;;;;-3.16;54.49;96671.50;5008819;28;19990;-72
2022/03/06 04:38:39;;;;;;;;;;;;;;;-3.19;56.94;96670.94;5004027;28;19959;-72
2022/03/06 04:41:05;;;;;;;;;;;;;;;-3.24;55.64;96670.50;4999794;28;20318;-72
2022/03/06 04:43:30;;;;;;;;;;;;;;;-3.29;57.11;96674.25;5007731;28;19978;-72
2022/03/06 04:45:56;;;;;;;;;;;;;;;-3.29;57.53;96673.44;5000750;28;20029;-72
2022/03/06 04:48:22;;;;;;;;;;;;;;;-3.28;57.49;96670.75;5008477;28;20003;-72
2022/03/06 04:50:48;;;;;;;;;;;;;;;-3.27;56.96;96672.38;5010193;28;19965;-72
2022/03/06 04:53:14;;;;;;;;;;;;;;;-3.24;58.19;96681.56;5008758;28;19980;-72
2022/03/06 04:55:40;;;;;;;;;;;;;;;-3.24;57.24;96678.19;5001735;28;19951;-71
2022/03/06 04:58:06;;;;;;;;;;;;;;;-3.22;57.80;96689.94;5012108;28;20476;-72
2022/03/06 05:00:33;;;;;;;;;;;;;;;-3.20;56.86;96687.28;4988325;28;20306;-72
2022/03/06 05:02:59;;;;;;;;;;;;;;;-3.20;57.60;96682.13;5005587;28;19974;-72
2022/03/06 05:05:25;;;;;;;;;;;;;;;-3.21;58.37;96683.06;5006851;28;20046;-72
2022/03/06 05:07:51;;;;;;;;;;;;;;;-3.26;57.23;96683.44;5008463;28;20382;-72
2022/03/06 05:10:17;;;;;;;;;;;;;;;-3.26;58.56;96686.00;5005951;28;19994;-72
2022/03/06 05:12:42;;;;;;;;;;;;;;;-3.27;57.38;96687.78;5007469;28;19987;-72
2022/03/06 05:15:10;;;;;;;;;;;;;;;-3.28;57.06;96682.75;5005643;28;19980;-72
2022/03/06 05:17:37;;;;;;;;;;;;;;;-3.31;56.65;96686.38;5002289;28;19950;-72
2022/03/06 05:20:03;;;;;;;;;;;;;;;-3.32;58.14;96695.03;5006694;28;19953;-72
2022/03/06 05:22:29;;;;;;;;;;;;;;;-3.32;58.19;96699.34;5006350;28;19972;-72
2022/03/06 05:24:55;;;;;;;;;;;;;;;-3.33;57.52;96698.53;5006604;28;19950;-72
2022/03/06 05:27:21;;;;;;;;;;;;;;;-3.35;59.52;96702.16;5005123;28;19950;-72
2022/03/06 05:29:46;;;;;;;;;;;;;;;-3.35;59.06;96694.47;5002564;28;20037;-72
2022/03/06 05:32:12;;;;;;;;;;;;;;;-3.35;58.83;96699.59;5001242;28;19953;-72
2022/03/06 05:34:38;;;;;;;;;;;;;;;-3.34;57.37;96698.66;5003553;28;19950;-72
2022/03/06 05:37:04;;;;;;;;;;;;;;;-3.33;58.37;96697.72;5002432;28;19958;-72
2022/03/06 05:39:30;;;;;;;;;;;;;;;-3.35;57.60;96697.03;5011265;28;19958;-72
2022/03/06 05:41:56;;;;;;;;;;;;;;;-3.35;57.68;96705.53;5000719;28;20024;-72
2022/03/06 05:44:22;;;;;;;;;;;;;;;-3.36;58.28;96711.59;5011735;28;19980;-72
2022/03/06 05:46:47;;;;;;;;;;;;;;;-3.38;58.79;96710.91;4999382;28;20009;-72
2022/03/06 05:49:13;;;;;;;;;;;;;;;-3.42;57.67;96708.72;5000306;28;19959;-71
2022/03/06 05:51:40;;;;;;;;;;;;;;;-3.46;59.63;96718.41;5004522;28;20406;-71
2022/03/06 05:54:07;;;;;;;;;;;;;;;-3.44;58.45;96724.22;4996107;28;19959;-71
2022/03/06 05:56:33;;;;;;;;;;;;;;;-3.44;59.57;96720.84;5007071;28;19963;-72
2022/03/06 05:58:58;;;;;;;;;;;;;;;-3.44;58.65;96721.66;4998886;28;19963;-71
2022/03/06 06:01:24;;;;;;;;;;;;;;;-3.46;58.08;96720.97;5003254;28;19954;-71
2022/03/06 06:03:50;;;;;;;;;;;;;;;-3.44;59.18;96731.09;5002976;28;19982;-71
2022/03/06 06:06:16;;;;;;;;;;;;;;;-3.42;58.94;96721.53;5005642;28;20057;-71
2022/03/06 06:08:42;;;;;;;;;;;;;;;-3.41;58.04;96728.28;4999548;28;20395;-72
2022/03/06 06:11:08;;;;;;;;;;;;;;;-3.41;58.76;96726.53;5005822;28;20356;-73
2022/03/06 06:13:34;;;;;;;;;;;;;;;-3.39;59.03;96734.13;4971173;28;19954;-72
2022/03/06 06:16:00;;;;;;;;;;;;;;;-3.35;58.78;96727.81;4999820;28;19952;-71
2022/03/06 06:18:27;;;;;;;;;;;;;;;-3.31;59.12;96734.31;5006264;28;19998;-72
2022/03/06 06:20:53;;;;;;;;;;;;;;;-3.30;58.86;96723.09;5003651;28;19976;-72
2022/03/06 06:23:19;;;;;;;;;;;;;;;-3.30;58.92;96725.66;5004391;28;19996;-71
2022/03/06 06:25:45;;;;;;;;;;;;;;;-3.30;58.44;96721.38;5005196;28;20422;-71
2022/03/06 06:28:11;;;;;;;;;;;;;;;-3.29;58.52;96720.41;5004768;28;19959;-71
2022/03/06 06:30:37;;;;;;;;;;;;;;;-3.17;58.74;96725.47;5001130;28;19953;-73
2022/03/06 06:33:02;;;;;;;;;;;;;;;-2.84;58.11;96727.03;4993155;28;19955;-71
2022/03/06 06:35:29;;;;;;;;;;;;;;;-2.38;57.51;96722.38;5003214;28;20379;-72
2022/03/06 06:37:55;;;;;;;;;;;;;;;-1.95;56.41;96723.81;5001883;28;19955;-72
2022/03/06 06:40:21;;;;;;;;;;;;;;;-1.56;56.96;96721.28;5000546;28;20326;-72
2022/03/06 06:42:47;;;;;;;;;;;;;;;-1.12;62.17;96727.63;5003103;28;19969;-71
2022/03/06 06:45:12;;;;;;;;;;;;;;;-0.53;63.39;96723.13;5009850;28;19985;-71
2022/03/06 06:47:38;;;;;;;;;;;;;;;0.13;58.52;96729.88;5002918;28;20008;-70
2022/03/06 06:50:05;;;;;;;;;;;;;;;0.73;60.60;96731.88;5001051;28;20006;-72
2022/03/06 06:52:31;;;;;;;;;;;;;;;1.31;56.59;96729.72;5004371;28;19957;-72
2022/03/06 06:54:56;;;;;;;;;;;;;;;1.83;56.67;96732.22;5004315;28;19957;-72
2022/03/06 06:57:22;;;;;;;;;;;;;;;2.27;52.45;96732.03;5008251;28;20016;-71
2022/03/06 06:59:48;;;;;;;;;;;;;;;2.49;49.03;96725.44;5002311;28;19951;-72
2022/03/06 07:02:14;;;;;;;;;;;;;;;2.44;48.55;96728.50;4999340;28;19955;-72
2022/03/06 07:04:40;;;;;;;;;;;;;;;2.36;48.33;96731.06;5005147;28;19957;-72
2022/03/06 07:07:06;;;;;;;;;;;;;;;2.23;48.32;96738.50;5007659;28;20055;-72
2022/03/06 07:09:32;;;;;;;;;;;;;;;2.23;48.36;96744.47;4986380;28;19961;-72
2022/03/06 07:11:57;;;;;;;;;;;;;;;2.20;48.31;96742.19;4999826;28;20017;-72
2022/03/06 07:14:23;;;;;;;;;;;;;;;2.20;48.54;96741.38;5003967;28;19962;-72
2022/03/06 07:16:49;;;;;;;;;;;;;;;2.19;48.51;96739.78;5005198;28;19954;-72
2022/03/06 07:19:17;;;;;;;;;;;;;;;2.24;48.23;96751.25;5010386;28;19956;-72
2022/03/06 07:21:44;;;;;;;;;;;;;;;2.39;48.19;96748.06;5006179;28;19953;-72
2022/03/06 07:24:10;;;;;;;;;;;;;;;2.51;48.00;96748.56;5013200;28;19974;-72
2022/03/06 07:26:36;;;;;;;;;;;;;;;2.62;47.94;96745.66;5011571;28;19997;-72
2022/03/06 07:29:03;;;;;;;;;;;;;;;2.79;47.76;96754.25;5004474;28;19952;-72
2022/03/06 07:31:28;;;;;;;;;;;;;;;2.93;47.65;96758.81;5014067;28;20315;-72
2022/03/06 07:33:54;;;;;;;;;;;;;;;3.11;47.14;96752.63;5011445;28;19961;-70
2022/03/06 07:36:20;;;;;;;;;;;;;;;3.24;46.64;96750.38;5005344;28;19983;-71
2022/03/06 07:38:46;;;;;;;;;;;;;;;3.29;46.72;96755.88;4997186;28;19960;-72
2022/03/06 07:41:12;;;;;;;;;;;;;;;3.35;46.59;96754.41;5011792;28;19955;-72
2022/03/06 07:43:38;;;;;;;;;;;;;;;3.38;46.48;96760.09;5012835;28;19971;-72
2022/03/06 07:46:04;;;;;;;;;;;;;;;3.49;46.63;96755.53;5010929;28;19984;-72
2022/03/06 07:48:30;;;;;;;;;;;;;;;3.55;46.72;96760.84;5008077;28;19977;-73
2022/03/06 07:50:56;;;;;;;;;;;;;;;3.59;46.25;96756.97;5010430;28;19958;-73
2022/03/06 07:53:22;;;;;;;;;;;;;;;3.71;46.48;96757.41;5011717;28;19963;-73
2022/03/06 07:55:48;;;;;;;;;;;;;;;3.81;46.14;96765.00;5014423;28;19971;-72
2022/03/06 07:58:14;;;;;;;;;;;;;;;3.99;45.70;96760.41;5008536;28;19959;-72
2022/03/06 08:00:39;;;;;;;;;;;;;;;4.18;45.97;96760.94;5009907;28;20377;-72
2022/03/06 08:03:05;;;;;;;;;;;;;;;4.26;45.35;96764.34;5010467;28;19968;-73
2022/03/06 08:05:31;;;;;;;;;;;;;;;4.40;45.40;96767.16;5000390;28;19963;-71
2022/03/06 08:07:57;;;;;;;;;;;;;;;4.53;44.60;96774.41;5015610;28;19953;-72
2022/03/06 08:10:23;;;;;;;;;;;;;;;4.59;44.61;96771.91;5010478;28;20423;-72
2022/03/06 08:12:49;;;;;;;;;;;;;;;4.72;44.92;96762.75;5009475;28;19962;-72
2022/03/06 08:15:15;;;;;;;;;;;;;;;4.99;44.69;96777.00;5008895;28;19964;-71
2022/03/06 08:17:41;;;;;;;;;;;;;;;5.25;44.75;96767.06;5006869;28;19954;-72
2022/03/06 08:20:08;;;;;;;;;;;;;;;5.43;44.08;96766.72;5016716;28;20310;-72
2022/03/06 08:22:34;;;;;;;;;;;;;;;5.44;43.75;96770.94;4987831;28;19959;-72
2022/03/06 08:25:00;;;;;;;;;;;;;;;5.55;43.08;96767.09;4992765;28;19965;-73
2022/03/06 08:27:26;;;;;;;;;;;;;;;5.62;43.25;96768.00;5011776;28;19958;-72
2022/03/06 08:29:52;;;;;;;;;;;;;;;5.66;43.52;96763.25;5007851;28;19959;-73
2022/03/06 08:32:18;;;;;;;;;;;;;;;5.79;43.32;96755.63;5005811;28;19952;-70
2022/03/06 08:34:44;;;;;;;;;;;;;;;5.91;43.22;96753.38;5001972;28;20087;-71
2022/03/06 08:37:10;;;;;;;;;;;;;;;6.07;43.15;96766.25;5007496;28;19957;-72
2022/03/06 08:39:36;;;;;;;;;;;;;;;6.21;42.75;96755.97;5003502;28;19959;-71
2022/03/06 08:42:02;;;;;;;;;;;;;;;6.18;41.62;96758.97;5007378;28;19958;-72
2022/03/06 08:44:28;;;;;;;;;;;;;;;6.10;42.35;96752.84;5008563;28;19996;-72
2022/03/06 08:46:54;;;;;;;;;;;;;;;6.12;40.98;96764.88;5007298;28;20005;-71
2022/03/06 08:49:20;;;;;;;;;;;;;;;5.90;42.71;96749.19;4999947;28;19958;-72
2022/03/06 08:51:46;;;;;;;;;;;;;;;5.78;42.71;96748.81;4989813;28;19963;-72
2022/03/06 08:54:12;;;;;;;;;;;;;;;5.60;42.50;96756.97;5011260;28;19957;-72
2022/03/06 08:56:38;;;;;;;;;;;;;;;5.18;41.85;96755.72;5006860;28;19986;-72
2022/03/06 08:59:04;;;;;;;;;;;;;;;4.75;42.88;96758.03;5004892;28;19959;-71
2022/03/06 09:01:30;;;;;;;;;;;;;;;4.65;43.46;96753.06;5005703;28;20002;-72
2022/03/06 09:03:56;;;;;;;;;;;;;;;4.62;43.29;96753.41;5004212;28;20017;-72
2022/03/06 09:06:21;;;;;;;;;;;;;;;4.52;43.81;96758.00;5007950;28;19951;-72
2022/03/06 09:08:47;;;;;;;;;;;;;;;4.50;44.40;96751.38;5006489;28;19957;-72
2022/03/06 09:11:13;;;;;;;;;;;;;;;4.50;43.85;96757.38;5005904;28;20001;-71
2022/03/06 09:13:39;;;;;;;;;;;;;;;4.41;43.91;96753.19;5006393;28;19953;-72
2022/03/06 09:16:05;;;;;;;;;;;;;;;4.36;43.84;96756.31;5005555;28;19959;-72
2022/03/06 09:18:31;;;;;;;;;;;;;;;4.36;44.11;96755.50;5006391;28;19963;-71
2022/03/06 09:20:57;;;;;;;;;;;;;;;4.34;43.67;96754.88;5010368;28;19965;-71
2022/03/06 09:23:24;;;;;;;;;;;;;;;4.27;44.32;96752.16;5003571;28;19970;-72
2022/03/06 09:25:49;;;;;;;;;;;;;;;4.31;43.74;96752.63;5003331;28;19964;-71
2022/03/06 09:28:15;;;;;;;;;;;;;;;4.46;44.36;96761.28;4987664;28;19983;-72
2022/03/06 09:30:42;;;;;;;;;;;;;;;4.18;42.78;96759.19;5011647;28;19961;-71
2022/03/06 09:33:08;;;;;;;;;;;;;;;4.00;43.25;96767.19;5003592;28;20418;-72
2022/03/06 09:35:35;;;;;;;;;;;;;;;3.77;43.28;96756.72;5001516;28;19957;-72
2022/03/06 09:38:01;;;;;;;;;;;;;;;3.81;44.41;96755.41;5008772;28;19959;-72
2022/03/06 09:40:27;;;;;;;;;;;;;;;4.04;43.68;96754.69;4989249;28;20329;-72
2022/03/06 09:42:53;;;;;;;;;;;;;;;4.18;43.78;96756.59;4995961;28;19959;-72
2022/03/06 09:45:21;;;;;;;;;;;;;;;4.31;42.41;96757.81;5009786;28;20077;-72
2022/03/06 09:47:46;;;;;;;;;;;;;;;4.18;42.12;96753.97;5000378;28;19956;-71
2022/03/06 09:50:13;;;;;;;;;;;;;;;4.24;42.67;96748.13;5003654;28;20015;-72
2022/03/06 09:52:39;;;;;;;;;;;;;;;4.35;42.13;96746.91;5005036;28;19950;-72
2022/03/06 09:55:06;;;;;;;;;;;;;;;4.48;43.32;96751.56;5006915;28;20295;-72
2022/03/06 09:57:32;;;;;;;;;;;;;;;4.56;41.83;96741.13;4991603;28;19966;-72
2022/03/06 09:59:58;;;;;;;;;;;;;;;4.61;42.54;96751.78;5003761;28;20005;-72
2022/03/06 10:02:23;;;;;;;;;;;;;;;4.68;41.58;96757.09;5002503;28;19951;-72
2022/03/06 10:04:50;;;;;;;;;;;;;;;4.61;40.90;96744.00;5003122;28;19971;-73
2022/03/06 10:07:19;;;;;;;;;;;;;;;4.61;41.54;96736.19;5006713;28;19969;-72
2022/03/06 10:09:51;;;;;;;;;;;;;;;4.75;41.59;96745.03;5004124;28;20303;-72
2022/03/06 10:12:18;;;;;;;;;;;;;;;4.82;41.41;96747.75;5004732;28;19956;-72
2022/03/06 10:14:44;;;;;;;;;;;;;;;4.57;39.46;96762.69;5004042;28;19952;-72
2022/03/06 10:17:14;;;;;;;;;;;;;;;4.41;40.54;96745.41;5003854;28;20012;-74
2022/03/06 10:19:55;;;;;;;;;;;;;;;4.46;41.00;96749.13;5005225;28;19959;-72
2022/03/06 10:22:22;;;;;;;;;;;;;;;4.42;39.40;96744.44;5002045;28;19951;-72
2022/03/06 10:24:49;;;;;;;;;;;;;;;4.32;39.87;96751.63;5010518;28;19973;-72
2022/03/06 10:27:15;;;;;;;;;;;;;;;4.22;39.94;96746.66;5005015;28;19959;-72
2022/03/06 10:29:41;;;;;;;;;;;;;;;4.30;40.95;96751.00;5004242;28;19962;-73
2022/03/06 10:32:07;;;;;;;;;;;;;;;4.46;40.91;96741.31;5007075;28;20401;-73
2022/03/06 10:34:35;;;;;;;;;;;;;;;4.59;38.87;96755.53;5005308;28;20317;-72
2022/03/06 10:37:02;;;;;;;;;;;;;;;4.78;39.55;96736.09;5004861;28;19949;-72
2022/03/06 10:39:29;;;;;;;;;;;;;;;4.84;38.56;96754.38;5001437;28;19958;-71
2022/03/06 10:41:56;;;;;;;;;;;;;;;4.85;38.74;96755.19;5009599;28;19961;-73
2022/03/06 10:44:40;;;;;;;;;;;;;;;4.56;38.18;96767.09;5003291;28;19990;-73
2022/03/06 10:47:06;;;;;;;;;;;;;;;4.28;38.96;96756.34;5001090;28;20344;-73
2022/03/06 10:49:33;;;;;;;;;;;;;;;4.26;39.35;96763.50;5002554;28;20002;-72
2022/03/06 10:52:12;;;;;;;;;;;;;;;4.04;39.49;96752.91;4984155;28;19954;-72
2022/03/06 10:54:48;;;;;;;;;;;;;;;4.08;40.09;96750.78;5009123;28;19950;-72
2022/03/06 10:57:13;;;;;;;;;;;;;;;4.25;40.11;96754.91;5008914;28;19958;-72
2022/03/06 10:59:40;;;;;;;;;;;;;;;4.25;39.35;96748.91;5011566;28;19957;-72
2022/03/06 11:02:08;;;;;;;;;;;;;;;4.18;39.65;96758.34;5006028;28;19958;-72
2022/03/06 11:04:34;;;;;;;;;;;;;;;4.18;39.11;96758.34;4999692;28;19965;-73
2022/03/06 11:07:00;;;;;;;;;;;;;;;4.30;38.86;96763.97;5003960;28;19949;-75
2022/03/06 11:09:26;;;;;;;;;;;;;;;4.31;39.17;96758.63;4996447;28;20012;-74
2022/03/06 11:11:52;;;;;;;;;;;;;;;4.49;39.41;96747.97;5000622;28;20410;-74
2022/03/06 11:14:18;;;;;;;;;;;;;;;4.83;38.50;96725.97;5002778;28;19966;-74
2022/03/06 11:16:44;;;;;;;;;;;;;;;5.28;39.25;96729.50;5006241;28;19951;-72
2022/03/06 11:19:10;;;;;;;;;;;;;;;5.68;38.07;96728.25;5007926;28;20441;-72
2022/03/06 11:21:39;;;;;;;;;;;;;;;6.02;37.73;96726.91;5002751;28;19953;-73
2022/03/06 11:24:14;;;;;;;;;;;;;;;6.09;36.88;96733.00;5004297;28;19970;-72
2022/03/06 11:26:39;;;;;;;;;;;;;;;6.09;37.11;96730.41;5001167;28;19974;-72
2022/03/06 11:29:05;;;;;;;;;;;;;;;6.35;36.90;96730.91;5004718;28;19957;-71
2022/03/06 11:31:47;;;;;;;;;;;;;;;6.39;36.36;96732.94;5006452;28;20315;-71
2022/03/06 11:34:26;;;;;;;;;;;;;;;6.25;35.78;96745.00;4984985;28;19962;-72
2022/03/06 11:36:53;;;;;;;;;;;;;;;5.95;35.53;96740.84;5002465;28;19954;-73
2022/03/06 11:39:28;;;;;;;;;;;;;;;5.83;35.24;96736.06;5000784;28;19965;-73
2022/03/06 11:41:54;;;;;;;;;;;;;;;5.83;36.17;96727.44;5006813;28;19944;-72
2022/03/06 11:44:43;;;;;;;;;;;;;;;5.77;34.83;96734.16;5009719;28;19988;-73
2022/03/06 11:47:18;;;;;;;;;;;;;;;5.77;35.67;96723.75;4980078;28;19977;-73
2022/03/06 11:49:52;;;;;;;;;;;;;;;5.77;35.48;96725.56;4996191;28;20284;-74
2022/03/06 11:52:31;;;;;;;;;;;;;;;5.97;36.46;96725.84;5006308;28;19963;-73
2022/03/06 11:54:58;;;;;;;;;;;;;;;6.23;35.57;96730.56;5005366;28;19953;-73
2022/03/06 11:57:37;;;;;;;;;;;;;;;6.62;36.08;96714.53;5010734;28;19962;-73
2022/03/06 12:00:16;;;;;;;;;;;;;;;7.01;35.75;96702.03;4986694;28;19959;-73
2022/03/06 12:02:46;;;;;;;;;;;;;;;7.03;34.74;96703.44;5003286;28;20320;-72
2022/03/06 12:05:12;;;;;;;;;;;;;;;7.02;34.91;96709.69;5008319;28;20312;-73
2022/03/06 12:07:39;;;;;;;;;;;;;;;7.09;35.19;96707.13;5006012;28;19968;-73
2022/03/06 12:10:09;;;;;;;;;;;;;;;7.00;34.52;96708.25;5000478;28;20341;-74
2022/03/06 12:12:37;;;;;;;;;;;;;;;6.74;35.07;96716.63;5001105;28;20436;-72
2022/03/06 12:15:16;;;;;;;;;;;;;;;6.59;35.46;96714.09;5016555;28;19955;-75
2022/03/06 12:17:43;;;;;;;;;;;;;;;6.61;36.17;96714.72;5001246;28;19949;-74
2022/03/06 12:20:11;;;;;;;;;;;;;;;6.55;35.50;96703.25;5004433;28;20354;-73
2022/03/06 12:22:47;;;;;;;;;;;;;;;6.41;35.44;96704.13;5016234;28;19955;-74
2022/03/06 12:25:16;;;;;;;;;;;;;;;6.45;35.55;96703.56;5004309;28;19982;-74
2022/03/06 12:28:02;;;;;;;;;;;;;;;6.42;35.68;96709.13;5002248;28;19967;-74
2022/03/06 12:30:28;;;;;;;;;;;;;;;6.40;35.45;96700.69;5005609;28;19960;-74
2022/03/06 12:32:54;;;;;;;;;;;;;;;6.12;34.86;96710.22;5007864;28;19955;-74
2022/03/06 12:35:22;;;;;;;;;;;;;;;5.90;35.84;96710.13;4999914;28;19949;-73
2022/03/06 12:37:56;;;;;;;;;;;;;;;5.89;36.34;96705.91;5006970;28;19950;-73
2022/03/06 12:40:24;;;;;;;;;;;;;;;5.90;35.80;96699.72;5011704;28;19953;-74
2022/03/06 12:42:57;;;;;;;;;;;;;;;6.07;36.50;96703.75;5007207;28;20312;-73
2022/03/06 12:45:23;;;;;;;;;;;;;;;5.97;35.39;96695.41;5002490;28;19982;-73
2022/03/06 12:47:49;;;;;;;;;;;;;;;5.99;36.23;96696.03;5009684;28;19960;-73